createdAt,value
2017-10-29T00:02:21.796Z,99.90
2017-10-29T00:07:24.975Z,99.90
2017-10-29T00:12:28.162Z,99.90
2017-10-29T00:17:31.361Z,99.90
2017-10-29T00:22:34.562Z,99.90
2017-10-29T00:27:38.493Z,99.90
2017-10-29T00:32:41.786Z,99.90
2017-10-29T00:37:45.736Z,99.90
2017-10-29T00:42:48.934Z,99.90
2017-10-29T00:47:53.082Z,99.90
2017-10-29T00:52:56.252Z,99.90
2017-10-29T00:58:00.206Z,99.90
2017-10-29T01:03:03.366Z,99.90
2017-10-29T01:08:07.363Z,99.90
2017-10-29T01:13:10.542Z,99.90
2017-10-29T01:18:13.710Z,99.90
2017-10-29T01:23:17.664Z,99.90
2017-10-29T01:28:20.938Z,99.90
2017-10-29T01:33:24.886Z,99.90
2017-10-29T01:38:28.065Z,99.90
2017-10-29T01:43:32.004Z,99.90
2017-10-29T01:48:35.392Z,99.90
2017-10-29T01:53:38.591Z,99.90
2017-10-29T01:58:41.794Z,99.90
2017-10-29T02:03:45.015Z,99.90
2017-10-29T02:08:48.964Z,99.90
2017-10-29T02:13:52.158Z,99.90
2017-10-29T02:18:55.381Z,99.90
2017-10-29T02:23:58.526Z,99.90
2017-10-29T02:29:01.711Z,99.90
2017-10-29T02:34:04.902Z,99.90
2017-10-29T02:39:08.299Z,99.90
2017-10-29T02:44:11.500Z,99.90
2017-10-29T02:49:14.712Z,99.90
2017-10-29T02:54:18.644Z,99.90
2017-10-29T02:59:21.876Z,99.90
2017-10-29T03:04:25.050Z,99.90
2017-10-29T03:09:28.268Z,99.90
2017-10-29T03:14:31.487Z,99.90
2017-10-29T03:19:34.686Z,99.90
2017-10-29T03:24:37.872Z,99.90
2017-10-29T03:29:41.064Z,99.90
2017-10-29T03:34:45.020Z,99.90
2017-10-29T03:39:48.205Z,99.90
2017-10-29T03:44:51.379Z,99.90
2017-10-29T03:49:55.437Z,99.90
2017-10-29T03:54:58.599Z,99.90
2017-10-29T04:00:01.758Z,99.90
2017-10-29T04:05:04.929Z,99.90
2017-10-29T04:10:08.885Z,99.90
2017-10-29T04:15:12.912Z,99.90
2017-10-29T04:20:16.089Z,99.90
2017-10-29T04:25:20.049Z,99.90
2017-10-29T04:30:23.243Z,99.90
2017-10-29T04:35:26.517Z,99.90
2017-10-29T04:40:30.462Z,99.90
2017-10-29T04:45:33.694Z,99.90
2017-10-29T04:50:36.871Z,99.90
2017-10-29T04:55:40.077Z,99.90
2017-10-29T05:00:43.269Z,99.90
2017-10-29T05:05:47.220Z,99.90
2017-10-29T05:10:50.418Z,99.90
2017-10-29T05:15:53.601Z,99.90
2017-10-29T05:20:57.581Z,99.90
2017-10-29T05:26:00.774Z,99.90
2017-10-29T05:31:03.965Z,99.90
2017-10-29T05:36:07.130Z,99.90
2017-10-29T05:41:10.343Z,99.90
2017-10-29T05:46:13.510Z,99.90
2017-10-29T05:51:16.685Z,99.90
2017-10-29T05:56:19.909Z,99.90
2017-10-29T06:01:23.082Z,99.90
2017-10-29T06:06:26.263Z,99.90
2017-10-29T06:11:29.438Z,99.90
2017-10-29T06:16:33.448Z,99.90
2017-10-29T06:21:36.613Z,99.90
2017-10-29T06:26:40.559Z,99.90
2017-10-29T06:31:43.723Z,99.90
2017-10-29T06:36:46.939Z,99.90
2017-10-29T06:41:50.902Z,99.90
2017-10-29T06:46:54.108Z,99.90
2017-10-29T06:51:57.297Z,99.90
2017-10-29T06:57:00.450Z,99.90
2017-10-29T07:02:03.622Z,99.90
2017-10-29T07:07:06.825Z,99.90
2017-10-29T07:12:10.068Z,96.80
2017-10-29T07:17:13.259Z,93.60
2017-10-29T07:22:16.447Z,96.40
2017-10-29T07:27:19.735Z,97.80
2017-10-29T07:32:23.685Z,95.00
2017-10-29T07:37:26.879Z,95.00
2017-10-29T07:42:30.087Z,94.10
2017-10-29T07:47:33.265Z,90.70
2017-10-29T07:52:36.539Z,90.70
2017-10-29T07:57:39.801Z,89.70
2017-10-29T08:02:43.747Z,89.00
2017-10-29T08:07:46.922Z,89.00
2017-10-29T08:12:50.926Z,85.60
2017-10-29T08:17:54.120Z,85.70
2017-10-29T08:22:57.732Z,85.10
2017-10-29T08:28:00.937Z,82.80
2017-10-29T08:33:04.126Z,80.90
2017-10-29T08:38:07.765Z,80.10
2017-10-29T08:43:11.062Z,73.70
2017-10-29T08:48:14.279Z,76.70
2017-10-29T08:53:17.486Z,67.60
2017-10-29T08:58:20.684Z,70.00
2017-10-29T09:03:23.886Z,68.70
2017-10-29T09:08:27.093Z,65.50
2017-10-29T09:13:30.336Z,67.20
2017-10-29T09:18:33.555Z,65.10
2017-10-29T09:23:37.537Z,56.10
2017-10-29T09:28:40.882Z,56.30
2017-10-29T09:33:44.828Z,61.60
2017-10-29T09:38:51.342Z,61.60
2017-10-29T09:43:54.551Z,62.90
2017-10-29T09:48:58.671Z,59.40
2017-10-29T09:54:01.974Z,58.50
2017-10-29T09:59:05.198Z,63.40
2017-10-29T10:04:08.391Z,61.90
2017-10-29T10:09:11.654Z,61.00
2017-10-29T10:14:15.655Z,61.00
2017-10-29T10:19:20.985Z,60.90
2017-10-29T10:24:31.823Z,60.40
2017-10-29T10:29:40.622Z,57.10
2017-10-29T10:34:43.840Z,60.70
2017-10-29T10:39:47.023Z,57.90
2017-10-29T10:44:50.232Z,57.50
2017-10-29T10:49:53.449Z,57.10
2017-10-29T10:54:56.764Z,54.50
2017-10-29T10:59:59.973Z,54.90
2017-10-29T11:05:03.300Z,54.80
2017-10-29T11:10:06.677Z,58.10
2017-10-29T11:15:09.911Z,65.10
2017-10-29T11:20:13.103Z,73.70
2017-10-29T11:25:16.310Z,81.60
2017-10-29T11:30:19.489Z,80.90
2017-10-29T11:35:22.700Z,75.90
2017-10-29T11:40:25.886Z,66.90
2017-10-29T11:45:29.858Z,66.80
2017-10-29T11:50:33.111Z,68.40
2017-10-29T12:00:55.466Z,57.70
2017-10-29T12:06:00.796Z,55.60
2017-10-29T12:11:05.756Z,59.30
2017-10-29T12:16:08.962Z,57.00
2017-10-29T12:21:12.296Z,55.30
2017-10-29T12:26:16.285Z,56.90
2017-10-29T12:31:19.505Z,56.90
2017-10-29T12:36:22.700Z,58.50
2017-10-29T12:41:25.924Z,58.40
2017-10-29T12:46:29.906Z,54.20
2017-10-29T12:51:33.114Z,54.00
2017-10-29T12:56:36.325Z,55.30
2017-10-29T13:01:39.541Z,53.90
2017-10-29T13:06:42.784Z,55.90
2017-10-29T13:11:46.066Z,59.00
2017-10-29T13:16:49.275Z,58.70
2017-10-29T13:21:52.457Z,57.20
2017-10-29T13:26:55.654Z,59.00
2017-10-29T13:31:59.068Z,59.60
2017-10-29T13:37:02.277Z,73.60
2017-10-29T13:42:05.565Z,77.70
2017-10-29T13:47:08.789Z,80.50
2017-10-29T13:52:12.101Z,77.90
2017-10-29T13:57:15.352Z,73.10
2017-10-29T14:02:18.538Z,70.10
2017-10-29T14:07:21.766Z,64.00
2017-10-29T14:12:25.763Z,63.50
2017-10-29T14:17:29.059Z,63.10
2017-10-29T14:22:32.260Z,61.20
2017-10-29T14:27:35.524Z,63.00
2017-10-29T14:32:38.778Z,60.60
2017-10-29T14:37:41.994Z,62.00
2017-10-29T14:42:45.228Z,62.70
2017-10-29T14:47:49.283Z,65.20
2017-10-29T14:52:53.318Z,67.70
2017-10-29T14:57:56.538Z,67.70
2017-10-29T15:02:59.759Z,67.70
2017-10-29T15:08:03.769Z,72.20
2017-10-29T15:13:07.088Z,72.10
2017-10-29T15:18:10.396Z,70.20
2017-10-29T15:23:13.594Z,70.30
2017-10-29T15:28:16.815Z,72.70
2017-10-29T15:33:20.007Z,73.50
2017-10-29T15:38:23.253Z,72.60
2017-10-29T15:43:26.543Z,70.40
2017-10-29T15:48:29.796Z,67.00
2017-10-29T15:53:33.758Z,70.00
2017-10-29T15:58:36.996Z,69.80
2017-10-29T16:03:40.171Z,71.70
2017-10-29T16:08:43.352Z,72.20
2017-10-29T16:13:46.558Z,74.50
2017-10-29T16:18:50.539Z,76.80
2017-10-29T16:23:53.743Z,76.80
2017-10-29T16:28:57.204Z,77.40
2017-10-29T16:34:00.593Z,77.80
2017-10-29T16:39:03.774Z,78.80
2017-10-29T16:44:06.976Z,78.70
2017-10-29T16:49:10.238Z,79.70
2017-10-29T16:54:13.451Z,78.80
2017-10-29T16:59:16.853Z,80.10
2017-10-29T17:04:20.825Z,80.30
2017-10-29T17:09:24.035Z,80.40
2017-10-29T17:14:27.239Z,81.20
2017-10-29T17:19:30.496Z,80.70
2017-10-29T17:24:34.430Z,80.80
2017-10-29T17:29:37.636Z,80.80
2017-10-29T17:34:40.882Z,80.20
2017-10-29T17:39:44.072Z,80.60
2017-10-29T17:44:47.322Z,80.40
2017-10-29T17:49:51.267Z,81.20
2017-10-29T17:54:54.481Z,81.20
2017-10-29T17:59:57.957Z,80.60
2017-10-29T18:05:01.280Z,80.40
2017-10-29T18:10:04.504Z,80.60
2017-10-29T18:15:07.723Z,81.00
2017-10-29T18:20:10.954Z,81.20
2017-10-29T18:25:14.233Z,81.50
2017-10-29T18:30:17.452Z,81.80
2017-10-29T18:35:20.766Z,82.50
2017-10-29T18:40:23.974Z,83.90
2017-10-29T18:45:27.212Z,85.60
2017-10-29T18:50:30.469Z,87.60
2017-10-29T18:55:33.667Z,87.60
2017-10-29T19:00:36.966Z,88.40
2017-10-29T19:05:41.073Z,86.90
2017-10-29T19:10:44.250Z,87.50
2017-10-29T19:15:47.576Z,87.40
2017-10-29T19:20:50.756Z,88.60
2017-10-29T19:25:54.034Z,87.50
2017-10-29T19:30:58.028Z,88.70
2017-10-29T19:36:01.284Z,88.70
2017-10-29T19:41:04.544Z,92.20
2017-10-29T19:46:07.723Z,90.60
2017-10-29T19:51:11.016Z,89.90
2017-10-29T19:56:14.202Z,92.00
2017-10-29T20:01:17.565Z,90.90
2017-10-29T20:06:20.788Z,89.50
2017-10-29T20:11:24.790Z,91.80
2017-10-29T20:16:27.989Z,91.80
2017-10-29T20:21:31.207Z,91.30
2017-10-29T20:26:34.446Z,91.20
2017-10-29T20:31:38.485Z,91.90
2017-10-29T20:36:41.732Z,91.90
2017-10-29T20:41:45.059Z,91.60
2017-10-29T20:46:48.271Z,88.90
2017-10-29T20:51:51.523Z,89.00
2017-10-29T20:56:54.823Z,87.30
2017-10-29T21:01:58.171Z,87.90
2017-10-29T21:07:01.347Z,88.70
2017-10-29T21:12:04.513Z,88.20
2017-10-29T21:17:07.720Z,87.10
2017-10-29T21:22:10.923Z,87.20
2017-10-29T21:27:14.120Z,85.70
2017-10-29T21:32:17.347Z,86.20
2017-10-29T21:37:21.323Z,87.70
2017-10-29T21:42:24.569Z,87.50
2017-10-29T21:47:27.779Z,87.40
2017-10-29T21:52:30.964Z,88.30
2017-10-29T21:57:34.174Z,89.80
2017-10-29T22:02:37.363Z,91.10
2017-10-29T22:07:40.567Z,90.80
2017-10-29T22:12:43.800Z,91.20
2017-10-29T22:17:47.019Z,90.20
2017-10-29T22:22:50.330Z,90.90
2017-10-29T22:27:53.766Z,90.60
2017-10-29T22:32:56.994Z,91.30
2017-10-29T22:38:00.252Z,90.80
2017-10-29T22:43:03.447Z,90.60
2017-10-29T22:48:06.667Z,91.70
2017-10-29T22:53:09.837Z,91.30
2017-10-29T22:58:13.035Z,91.40
2017-10-29T23:03:16.333Z,91.20
2017-10-29T23:08:22.450Z,91.30
2017-10-29T23:13:25.663Z,91.90
2017-10-29T23:18:28.884Z,92.90
2017-10-29T23:23:32.872Z,93.80
2017-10-29T23:28:36.092Z,93.80
2017-10-29T23:33:39.314Z,93.90
2017-10-29T23:38:43.279Z,93.50
2017-10-29T23:43:46.469Z,93.00
2017-10-29T23:48:49.727Z,92.10
2017-10-29T23:53:52.915Z,92.50
2017-10-29T23:58:56.109Z,92.50
